createdAt,value
2022-11-27T00:01:27.976Z,0.18
2022-11-27T00:03:56.555Z,0.26
2022-11-27T00:06:26.157Z,0.27
2022-11-27T00:08:53.416Z,0.30
2022-11-27T00:11:22.991Z,0.33
2022-11-27T00:13:52.749Z,0.39
2022-11-27T00:16:21.334Z,0.42
2022-11-27T00:18:48.865Z,0.47
2022-11-27T00:21:22.400Z,0.40
2022-11-27T00:23:50.036Z,0.36
2022-11-27T00:26:16.908Z,0.28
2022-11-27T00:28:43.711Z,0.25
2022-11-27T00:31:19.528Z,0.22
2022-11-27T00:33:46.477Z,0.25
2022-11-27T00:36:14.485Z,0.23
2022-11-27T00:38:41.925Z,0.21
2022-11-27T00:41:12.986Z,0.21
2022-11-27T00:43:44.566Z,0.12
2022-11-27T00:46:16.415Z,0.13
2022-11-27T00:48:44.106Z,0.15
2022-11-27T00:51:14.683Z,0.16
2022-11-27T00:53:42.321Z,0.21
2022-11-27T00:56:11.225Z,0.27
2022-11-27T00:58:38.030Z,0.25
2022-11-27T01:01:07.435Z,0.24
2022-11-27T01:03:35.510Z,0.20
2022-11-27T01:06:04.902Z,0.13
2022-11-27T01:08:32.209Z,0.13
2022-11-27T01:11:00.096Z,0.14
2022-11-27T01:13:28.833Z,0.10
2022-11-27T01:16:05.013Z,0.14
2022-11-27T01:18:34.596Z,0.17
2022-11-27T01:21:01.272Z,0.19
2022-11-27T01:23:28.341Z,0.18
2022-11-27T01:25:55.235Z,0.14
2022-11-27T01:28:24.013Z,0.10
2022-11-27T01:30:51.776Z,0.09
2022-11-27T01:33:19.566Z,0.12
2022-11-27T01:36:01.182Z,0.11
2022-11-27T01:38:30.403Z,0.02
2022-11-27T01:41:05.700Z,-0.03
2022-11-27T01:43:39.068Z,-0.07
2022-11-27T01:46:13.285Z,-0.12
2022-11-27T01:48:40.326Z,-0.11
2022-11-27T01:51:07.153Z,-0.10
2022-11-27T01:53:34.580Z,-0.05
2022-11-27T01:56:02.069Z,-0.04
2022-11-27T01:58:30.616Z,-0.15
2022-11-27T02:00:58.572Z,-0.20
2022-11-27T02:03:25.462Z,-0.17
2022-11-27T02:05:52.285Z,-0.21
2022-11-27T02:08:19.503Z,-0.20
2022-11-27T02:10:49.297Z,-0.15
2022-11-27T02:13:43.953Z,-0.18
2022-11-27T02:16:31.917Z,-0.20
2022-11-27T02:19:15.316Z,-0.17
2022-11-27T02:21:54.709Z,-0.17
2022-11-27T02:24:24.438Z,-0.15
2022-11-27T02:27:18.295Z,-0.15
2022-11-27T02:29:48.877Z,-0.17
2022-11-27T02:32:39.781Z,-0.17
2022-11-27T04:16:22.875Z,-0.42
2022-11-27T04:18:49.811Z,-0.43
2022-11-27T04:21:17.230Z,-0.42
2022-11-27T04:23:44.808Z,-0.40
2022-11-27T04:26:11.633Z,-0.30
2022-11-27T04:28:38.511Z,-0.24
2022-11-27T04:31:05.555Z,-0.17
2022-11-27T04:33:32.368Z,-0.13
2022-11-27T04:35:59.161Z,-0.11
2022-11-27T04:38:25.917Z,-0.09
2022-11-27T06:47:50.558Z,0.00
2022-11-27T06:50:20.135Z,0.08
2022-11-27T06:52:47.030Z,0.08
2022-11-27T06:55:13.916Z,0.06
2022-11-27T06:57:40.735Z,0.16
2022-11-27T07:00:08.375Z,0.23
2022-11-27T07:02:35.279Z,0.32
2022-11-27T07:05:02.141Z,0.38
2022-11-27T07:07:29.000Z,0.37
2022-11-27T07:09:55.866Z,0.42
2022-11-27T07:12:22.728Z,0.69
2022-11-27T07:14:49.522Z,0.84
2022-11-27T07:17:16.360Z,1.00
2022-11-27T07:19:43.206Z,0.95
2022-11-27T07:22:10.069Z,0.94
2022-11-27T07:24:36.977Z,1.07
2022-11-27T07:27:03.818Z,1.06
2022-11-27T07:29:30.615Z,1.04
2022-11-27T07:31:57.430Z,1.11
2022-11-27T07:34:24.255Z,1.13
2022-11-27T07:36:51.034Z,1.08
2022-11-27T07:39:28.732Z,1.06
2022-11-27T07:42:37.058Z,1.11
2022-11-27T07:44:54.819Z,1.09
2022-11-27T07:47:21.661Z,1.17
2022-11-27T07:49:48.434Z,1.19
2022-11-27T07:52:15.306Z,1.20
2022-11-27T07:54:42.390Z,1.15
2022-11-27T07:57:09.299Z,1.26
2022-11-27T07:59:36.085Z,1.28
2022-11-27T08:02:03.122Z,1.36
2022-11-27T08:04:30.122Z,1.50
2022-11-27T08:06:57.748Z,1.54
2022-11-27T08:09:24.631Z,1.54
2022-11-27T08:11:51.401Z,1.59
2022-11-27T08:14:19.358Z,1.61
2022-11-27T08:16:46.359Z,1.64
2022-11-27T08:19:13.668Z,1.64
2022-11-27T08:21:40.531Z,1.62
2022-11-27T08:24:07.667Z,1.65
2022-11-27T08:26:34.538Z,1.65
2022-11-27T08:29:01.407Z,1.62
2022-11-27T08:31:28.233Z,1.70
2022-11-27T08:33:55.114Z,1.72
2022-11-27T08:36:22.860Z,1.70
2022-11-27T08:38:49.726Z,1.74
2022-11-27T08:41:16.621Z,1.73
2022-11-27T08:43:43.517Z,1.73
2022-11-27T08:46:11.156Z,1.82
2022-11-27T08:48:38.352Z,1.92
2022-11-27T08:51:07.948Z,1.96
2022-11-27T08:53:37.751Z,1.93
2022-11-27T08:56:25.588Z,1.88
2022-11-27T08:58:52.807Z,1.86
2022-11-27T09:01:23.914Z,1.92
2022-11-27T09:03:52.970Z,1.99
2022-11-27T09:06:23.534Z,2.01
2022-11-27T09:08:51.335Z,2.09
2022-11-27T09:11:20.271Z,2.17
2022-11-27T09:13:47.825Z,2.21
2022-11-27T09:16:17.672Z,2.28
2022-11-27T09:18:49.373Z,2.30
2022-11-27T09:21:19.069Z,2.33
2022-11-27T09:23:45.947Z,2.42
2022-11-27T09:26:17.699Z,2.52
2022-11-27T09:28:45.007Z,2.59
2022-11-27T09:31:14.875Z,2.68
2022-11-27T09:33:43.817Z,2.77
2022-11-27T09:36:16.081Z,2.84
2022-11-27T09:38:43.138Z,3.00
2022-11-27T09:41:38.818Z,3.02
2022-11-27T09:44:12.085Z,2.92
2022-11-27T09:46:41.807Z,2.88
2022-11-27T09:49:22.121Z,2.92
2022-11-27T09:52:14.674Z,3.02
2022-11-27T09:54:52.615Z,3.13
2022-11-27T09:57:26.693Z,3.20
2022-11-27T09:59:55.215Z,3.44
2022-11-27T10:02:30.062Z,3.54
2022-11-27T10:05:15.465Z,3.70
2022-11-27T10:08:13.357Z,3.88
2022-11-27T10:11:01.755Z,3.93
2022-11-27T10:13:39.913Z,3.95
2022-11-27T10:16:26.079Z,4.00
2022-11-27T10:18:52.938Z,4.00
2022-11-27T10:21:37.957Z,4.00
2022-11-27T10:24:16.253Z,4.01
2022-11-27T10:26:52.788Z,4.10
2022-11-27T10:29:34.573Z,3.92
2022-11-27T10:32:07.332Z,3.87
2022-11-27T10:34:45.029Z,3.99
2022-11-27T10:37:32.690Z,4.14
2022-11-27T10:40:06.546Z,4.23
2022-11-27T10:42:42.422Z,4.38
2022-11-27T10:45:44.428Z,4.39
2022-11-27T10:48:12.576Z,4.41
2022-11-27T10:50:40.470Z,4.24
2022-11-27T10:53:33.533Z,4.30
2022-11-27T10:56:12.675Z,4.26
2022-11-27T10:59:01.680Z,4.14
2022-11-27T11:01:49.391Z,4.10
2022-11-27T11:04:37.401Z,4.13
2022-11-27T11:07:25.327Z,4.22
2022-11-27T11:09:53.615Z,4.17
2022-11-27T11:12:23.209Z,4.20
2022-11-27T11:14:59.683Z,4.23
2022-11-27T11:17:37.827Z,4.28
2022-11-27T11:20:24.239Z,4.31
2022-11-27T11:22:51.634Z,4.37
2022-11-27T11:25:20.780Z,4.34
2022-11-27T11:27:49.844Z,4.35
2022-11-27T11:30:29.917Z,4.41
2022-11-27T11:33:03.851Z,4.47
2022-11-27T11:35:36.168Z,4.45
2022-11-27T11:38:06.374Z,4.42
2022-11-27T11:40:35.423Z,4.44
2022-11-27T11:43:26.353Z,4.49
2022-11-27T11:45:53.223Z,4.51
2022-11-27T11:48:27.949Z,4.57
2022-11-27T11:50:57.250Z,4.62
2022-11-27T11:53:45.605Z,4.67
2022-11-27T11:56:27.857Z,4.73
2022-11-27T11:59:02.875Z,4.76
2022-11-27T12:01:43.702Z,4.75
2022-11-27T12:04:25.412Z,4.80
2022-11-27T12:07:11.183Z,4.87
2022-11-27T12:09:52.333Z,4.94
2022-11-27T12:13:11.334Z,4.95
2022-11-27T12:16:00.802Z,4.99
2022-11-27T12:18:42.532Z,5.00
2022-11-27T12:21:20.160Z,4.98
2022-11-27T12:23:54.059Z,4.97
2022-11-27T12:26:46.340Z,4.95
2022-11-27T12:29:18.767Z,4.95
2022-11-27T12:32:16.844Z,4.94
2022-11-27T12:35:02.282Z,4.97
2022-11-27T12:37:41.519Z,4.96
2022-11-27T12:40:24.544Z,4.93
2022-11-27T12:43:24.982Z,4.84
2022-11-27T12:46:00.356Z,4.87
2022-11-27T12:48:52.015Z,4.88
2022-11-27T12:51:27.974Z,4.81
2022-11-27T12:54:05.486Z,4.83
2022-11-27T12:56:44.873Z,4.78
2022-11-27T12:59:14.999Z,4.81
2022-11-27T13:01:47.733Z,4.81
2022-11-27T13:04:30.354Z,4.81
2022-11-27T13:07:18.963Z,4.83
2022-11-27T13:10:24.370Z,4.86
2022-11-27T13:13:04.572Z,4.81
2022-11-27T13:16:11.371Z,4.84
2022-11-27T13:18:46.463Z,4.82
2022-11-27T13:21:20.914Z,4.75
2022-11-27T13:23:48.547Z,4.83
2022-11-27T13:26:32.996Z,4.83
2022-11-27T13:29:29.555Z,4.83
2022-11-27T13:32:00.492Z,4.82
2022-11-27T13:34:29.939Z,4.79
2022-11-27T13:37:08.772Z,4.82
2022-11-27T13:39:42.132Z,4.79
2022-11-27T13:42:11.987Z,4.78
2022-11-27T13:44:44.721Z,4.78
2022-11-27T13:47:16.607Z,4.78
2022-11-27T13:49:44.026Z,4.82
2022-11-27T13:52:15.995Z,4.85
2022-11-27T13:55:00.494Z,4.84
2022-11-27T13:57:30.420Z,4.83
2022-11-27T14:00:10.702Z,4.84
2022-11-27T14:02:52.112Z,4.86
2022-11-27T14:05:22.356Z,4.84
2022-11-27T14:07:52.864Z,4.82
2022-11-27T14:10:33.906Z,4.79
2022-11-27T14:13:10.158Z,4.80
2022-11-27T14:15:38.508Z,4.80
2022-11-27T14:18:18.126Z,4.80
2022-11-27T14:20:53.880Z,4.80
2022-11-27T14:23:51.605Z,4.80
2022-11-27T14:26:24.267Z,4.78
2022-11-27T14:28:58.431Z,4.76
2022-11-27T14:31:33.650Z,4.76
2022-11-27T14:34:23.229Z,4.75
2022-11-27T14:36:53.058Z,4.74
2022-11-27T14:39:31.535Z,4.73
2022-11-27T14:42:00.603Z,4.70
2022-11-27T14:44:28.325Z,4.71
2022-11-27T14:46:57.417Z,4.70
2022-11-27T14:49:27.337Z,4.68
2022-11-27T14:51:56.987Z,4.67
2022-11-27T14:54:35.634Z,4.65
2022-11-27T14:57:02.771Z,4.64
2022-11-27T14:59:29.615Z,4.65
2022-11-27T15:02:17.036Z,4.64
2022-11-27T15:04:47.399Z,4.63
2022-11-27T15:07:22.087Z,4.53
2022-11-27T15:09:51.798Z,4.61
2022-11-27T15:12:23.724Z,4.60
2022-11-27T15:15:00.136Z,4.55
2022-11-27T15:17:30.646Z,4.56
2022-11-27T15:19:58.296Z,4.55
